createdAt,value
2018-03-02T00:00:06.451Z,17.60
2018-03-02T00:02:34.498Z,20.80
2018-03-02T00:05:03.719Z,19.35
2018-03-02T00:07:31.988Z,23.87
2018-03-02T00:10:00.347Z,19.58
2018-03-02T00:12:28.587Z,20.17
2018-03-02T00:14:56.865Z,20.02
2018-03-02T00:17:25.143Z,19.63
2018-03-02T00:19:54.642Z,17.87
2018-03-02T00:22:22.897Z,18.30
2018-03-02T00:24:51.953Z,18.63
2018-03-02T00:27:21.848Z,19.27
2018-03-02T00:29:50.936Z,18.42
2018-03-02T00:32:19.804Z,18.42
2018-03-02T00:34:49.497Z,18.85
2018-03-02T00:37:17.758Z,21.27
2018-03-02T00:39:46.029Z,20.05
2018-03-02T00:42:14.351Z,20.58
2018-03-02T00:44:43.478Z,18.85
2018-03-02T00:47:12.266Z,19.90
2018-03-02T00:49:40.535Z,20.10
2018-03-02T00:52:09.972Z,18.75
2018-03-02T00:54:38.217Z,17.70
2018-03-02T00:57:07.258Z,20.35
2018-03-02T00:59:35.780Z,20.37
2018-03-02T01:02:04.826Z,18.83
2018-03-02T01:04:33.139Z,20.58
2018-03-02T01:07:01.556Z,19.12
2018-03-02T01:09:30.179Z,19.58
2018-03-02T01:11:58.704Z,19.55
2018-03-02T01:14:26.956Z,19.15
2018-03-02T01:16:57.686Z,21.55
2018-03-02T01:19:25.958Z,17.42
2018-03-02T01:21:54.571Z,22.95
2018-03-02T01:24:22.864Z,18.83
2018-03-02T01:26:51.896Z,19.23
2018-03-02T01:29:20.165Z,20.60
2018-03-02T01:31:48.440Z,21.73
2018-03-02T01:34:16.758Z,21.40
2018-03-02T01:36:44.978Z,20.98
2018-03-02T01:39:13.231Z,20.40
2018-03-02T01:41:42.124Z,19.90
2018-03-02T01:44:12.075Z,23.20
2018-03-02T01:46:40.895Z,21.67
2018-03-02T01:49:09.176Z,21.33
2018-03-02T01:51:49.392Z,20.00
2018-03-02T01:54:17.670Z,20.15
2018-03-02T01:56:45.941Z,19.98
2018-03-02T01:59:15.357Z,20.65
2018-03-02T02:01:45.035Z,19.83
2018-03-02T02:04:13.613Z,19.70
2018-03-02T02:06:42.667Z,19.27
2018-03-02T02:09:10.923Z,22.23
2018-03-02T02:11:39.182Z,20.27
2018-03-02T02:14:07.547Z,21.12
2018-03-02T02:16:35.859Z,19.30
2018-03-02T02:19:04.135Z,21.10
2018-03-02T02:21:32.398Z,20.65
2018-03-02T02:24:01.436Z,19.40
2018-03-02T02:26:29.770Z,19.95
2018-03-02T02:28:58.037Z,18.90
2018-03-02T02:31:27.107Z,18.77
2018-03-02T02:33:55.354Z,20.20
2018-03-02T02:36:25.355Z,20.83
2018-03-02T02:38:54.547Z,19.73
2018-03-02T02:41:22.811Z,19.27
2018-03-02T02:43:52.669Z,20.62
2018-03-02T02:46:20.927Z,21.02
2018-03-02T02:48:49.206Z,21.35
2018-03-02T02:51:17.729Z,19.90
2018-03-02T02:53:46.016Z,22.27
2018-03-02T02:56:14.290Z,22.73
2018-03-02T02:58:42.707Z,22.35
2018-03-02T03:01:12.687Z,21.73
2018-03-02T03:03:40.988Z,21.75
2018-03-02T03:06:09.238Z,19.77
2018-03-02T03:08:37.517Z,22.30
2018-03-02T03:11:05.819Z,21.50
2018-03-02T03:13:34.883Z,20.80
2018-03-02T03:16:03.154Z,22.40
2018-03-02T03:18:31.417Z,21.87
2018-03-02T03:21:00.339Z,22.58
2018-03-02T03:23:28.898Z,20.98
2018-03-02T03:25:57.496Z,21.67
2018-03-02T03:28:25.786Z,21.35
2018-03-02T03:30:54.841Z,21.60
2018-03-02T03:33:23.120Z,22.42
2018-03-02T03:35:51.386Z,22.85
2018-03-02T03:38:19.675Z,23.70
2018-03-02T03:40:47.943Z,22.58
2018-03-02T03:43:16.226Z,23.58
2018-03-02T03:45:44.512Z,21.92
2018-03-02T03:48:12.769Z,23.45
2018-03-02T03:50:41.064Z,20.20
2018-03-02T03:53:09.366Z,20.73
2018-03-02T03:55:37.614Z,21.45
2018-03-02T03:58:05.940Z,23.38
2018-03-02T04:00:34.205Z,23.30
2018-03-02T04:03:03.390Z,23.50
2018-03-02T04:05:32.881Z,22.77
2018-03-02T04:08:01.167Z,22.33
2018-03-02T04:10:29.450Z,23.83
2018-03-02T04:12:57.746Z,21.52
2018-03-02T04:15:26.006Z,23.80
2018-03-02T04:17:54.891Z,22.70
2018-03-02T04:20:23.326Z,22.00
2018-03-02T04:22:52.190Z,21.98
2018-03-02T04:25:20.450Z,23.45
2018-03-02T04:27:49.547Z,21.37
2018-03-02T04:30:17.810Z,25.77
2018-03-02T04:32:46.117Z,24.05
2018-03-02T04:35:14.381Z,25.30
2018-03-02T04:37:42.652Z,20.62
2018-03-02T04:40:10.934Z,22.98
2018-03-02T04:42:39.917Z,24.00
2018-03-02T04:45:08.198Z,23.00
2018-03-02T04:47:36.492Z,28.60
2018-03-02T04:50:04.801Z,26.10
2018-03-02T04:52:33.390Z,23.85
2018-03-02T04:55:02.468Z,26.15
2018-03-02T04:57:30.756Z,23.75
2018-03-02T04:59:59.040Z,24.85
2018-03-02T05:02:27.546Z,26.27
2018-03-02T05:04:56.651Z,24.77
2018-03-02T05:07:25.688Z,25.67
2018-03-02T05:09:53.946Z,22.60
2018-03-02T05:12:22.258Z,49.08
2018-03-02T05:14:50.537Z,27.17
2018-03-02T05:17:18.772Z,56.33
2018-03-02T05:19:47.021Z,36.10
2018-03-02T05:22:15.331Z,35.95
2018-03-02T05:24:43.605Z,27.73
2018-03-02T05:27:12.175Z,25.60
2018-03-02T05:29:41.983Z,25.67
2018-03-02T05:32:11.937Z,24.77
2018-03-02T05:34:44.797Z,29.00
2018-03-02T05:37:14.047Z,25.98
2018-03-02T05:39:42.377Z,25.12
2018-03-02T05:42:10.719Z,27.05
2018-03-02T05:44:39.033Z,26.62
2018-03-02T05:47:08.043Z,22.73
2018-03-02T05:49:36.342Z,35.45
2018-03-02T05:52:04.632Z,26.30
2018-03-02T05:54:32.894Z,36.95
2018-03-02T05:57:01.225Z,26.48
2018-03-02T05:59:29.498Z,23.33
2018-03-02T06:01:58.663Z,25.45
2018-03-02T06:04:26.964Z,34.45
2018-03-02T06:06:56.015Z,25.62
2018-03-02T06:09:24.298Z,21.45
2018-03-02T06:11:52.606Z,24.12
2018-03-02T06:14:21.712Z,18.37
2018-03-02T06:16:50.435Z,24.92
2018-03-02T06:19:18.746Z,24.40
2018-03-02T06:21:47.134Z,20.42
2018-03-02T06:24:15.501Z,22.92
2018-03-02T06:26:43.807Z,24.42
2018-03-02T06:29:12.098Z,20.55
2018-03-02T06:31:41.149Z,23.77
2018-03-02T06:34:09.428Z,23.95
2018-03-02T06:36:37.700Z,27.62
2018-03-02T06:39:06.076Z,25.12
2018-03-02T06:41:36.166Z,24.05
2018-03-02T06:44:04.480Z,25.15
2018-03-02T06:46:32.753Z,23.90
2018-03-02T06:49:01.026Z,19.75
2018-03-02T06:51:29.330Z,22.13
2018-03-02T06:53:57.626Z,24.37
2018-03-02T06:56:26.797Z,23.77
2018-03-02T06:58:55.055Z,25.88
2018-03-02T07:01:23.355Z,24.08
2018-03-02T07:03:51.619Z,24.48
2018-03-02T07:06:19.968Z,25.85
2018-03-02T07:08:48.218Z,25.67
2018-03-02T07:11:17.270Z,26.33
2018-03-02T07:13:46.656Z,24.65
2018-03-02T07:16:14.934Z,26.55
2018-03-02T07:18:43.189Z,27.33
2018-03-02T07:21:11.548Z,24.08
2018-03-02T07:23:39.811Z,23.73
2018-03-02T07:26:08.066Z,25.42
2018-03-02T07:28:36.792Z,24.87
2018-03-02T07:31:05.836Z,25.80
2018-03-02T07:33:34.126Z,24.92
2018-03-02T07:36:02.454Z,24.50
2018-03-02T07:38:30.734Z,25.37
2018-03-02T07:40:59.004Z,25.48
2018-03-02T07:43:27.313Z,25.83
2018-03-02T07:45:55.571Z,24.83
2018-03-02T07:48:24.676Z,27.20
2018-03-02T07:50:52.973Z,24.15
2018-03-02T07:53:21.614Z,24.85
2018-03-02T07:55:49.863Z,23.12
2018-03-02T07:58:18.149Z,22.80
2018-03-02T08:00:46.412Z,24.80
2018-03-02T08:03:14.697Z,23.70
2018-03-02T08:05:42.995Z,25.60
2018-03-02T08:08:11.251Z,28.12
2018-03-02T08:10:39.557Z,24.30
2018-03-02T08:13:07.871Z,26.42
2018-03-02T08:15:36.129Z,25.12
2018-03-02T08:18:05.186Z,25.02
2018-03-02T08:20:33.486Z,24.37
2018-03-02T08:23:02.535Z,24.07
2018-03-02T08:25:30.865Z,25.40
2018-03-02T08:27:59.122Z,24.37
2018-03-02T08:30:27.392Z,24.30
2018-03-02T08:32:56.536Z,24.37
2018-03-02T08:35:24.843Z,29.10
2018-03-02T08:37:53.174Z,27.00
2018-03-02T08:40:23.111Z,30.20
2018-03-02T08:42:51.499Z,26.57
2018-03-02T08:45:19.714Z,27.40
2018-03-02T08:47:48.332Z,24.80
2018-03-02T08:50:17.379Z,25.77
2018-03-02T08:52:45.648Z,26.50
2018-03-02T08:55:13.994Z,23.77
2018-03-02T08:57:42.432Z,26.27
2018-03-02T09:00:10.734Z,25.20
2018-03-02T09:02:39.816Z,27.83
2018-03-02T09:05:08.895Z,27.20
2018-03-02T09:07:37.211Z,25.00
2018-03-02T09:10:05.467Z,25.17
2018-03-02T09:12:33.734Z,23.90
2018-03-02T09:15:02.020Z,27.00
2018-03-02T09:17:30.265Z,23.70
2018-03-02T09:19:58.561Z,24.37
2018-03-02T09:22:27.062Z,24.10
2018-03-02T09:24:56.130Z,24.17
2018-03-02T09:27:24.422Z,23.60
2018-03-02T09:29:52.721Z,24.37
2018-03-02T09:32:20.978Z,25.63
2018-03-02T09:34:49.240Z,25.40
2018-03-02T09:37:17.535Z,25.07
2018-03-02T09:39:46.270Z,24.40
2018-03-02T09:42:15.298Z,25.00
2018-03-02T09:44:43.691Z,24.63
2018-03-02T09:47:11.995Z,24.30
2018-03-02T09:49:40.274Z,25.03
2018-03-02T09:52:09.322Z,23.10
2018-03-02T09:54:37.625Z,23.93
2018-03-02T09:57:05.891Z,25.50
2018-03-02T09:59:34.162Z,24.20
2018-03-02T10:02:03.998Z,24.27
2018-03-02T10:04:32.362Z,24.50
2018-03-02T10:07:00.816Z,25.93
2018-03-02T10:09:29.850Z,27.27
2018-03-02T10:11:59.677Z,23.40
2018-03-02T10:14:27.963Z,25.37
2018-03-02T10:16:56.223Z,23.57
2018-03-02T10:19:24.508Z,27.33
2018-03-02T10:21:52.804Z,25.70
2018-03-02T10:24:21.072Z,25.80
2018-03-02T10:26:49.361Z,26.30
2018-03-02T10:29:17.633Z,24.67
2018-03-02T10:31:45.905Z,28.23
2018-03-02T10:34:14.181Z,26.50
2018-03-02T10:36:42.444Z,26.37
2018-03-02T10:39:11.237Z,24.60
2018-03-02T10:41:40.281Z,23.47
2018-03-02T10:44:09.357Z,24.27
2018-03-02T10:46:38.407Z,25.30
2018-03-02T10:49:06.646Z,22.57
2018-03-02T10:51:35.767Z,21.47
2018-03-02T10:54:04.080Z,25.03
2018-03-02T10:56:33.117Z,25.33
2018-03-02T10:59:01.382Z,27.00
2018-03-02T11:01:30.453Z,26.53
2018-03-02T11:04:00.692Z,26.60
2018-03-02T11:06:28.954Z,28.53
2018-03-02T11:08:57.243Z,22.77
2018-03-02T11:11:26.319Z,25.47
2018-03-02T11:13:54.690Z,26.93
2018-03-02T11:16:22.989Z,27.43
2018-03-02T11:18:51.277Z,26.13
2018-03-02T11:21:20.227Z,26.93
2018-03-02T11:23:48.488Z,28.83
2018-03-02T11:26:17.513Z,22.17
2018-03-02T11:28:45.792Z,27.93
2018-03-02T11:31:14.135Z,27.10
2018-03-02T11:33:42.397Z,28.07
2018-03-02T11:36:10.699Z,27.60
2018-03-02T11:38:38.986Z,26.33
2018-03-02T11:41:08.808Z,28.30
2018-03-02T11:43:37.089Z,29.07
2018-03-02T11:46:05.330Z,26.77
2018-03-02T11:48:33.664Z,26.27
2018-03-02T11:51:02.159Z,25.80
2018-03-02T11:53:30.402Z,23.97
2018-03-02T11:55:58.665Z,28.03
2018-03-02T11:58:27.537Z,29.03
2018-03-02T12:00:55.824Z,28.57
2018-03-02T12:03:24.059Z,28.00
2018-03-02T12:05:53.126Z,33.50
2018-03-02T12:08:21.439Z,28.53
2018-03-02T12:10:49.704Z,28.70
2018-03-02T12:13:17.994Z,26.10
2018-03-02T12:15:46.520Z,27.93
2018-03-02T12:18:14.873Z,24.90
2018-03-02T12:20:43.935Z,27.10
2018-03-02T12:23:12.225Z,25.60
2018-03-02T12:25:40.491Z,27.40
2018-03-02T12:28:08.776Z,27.07
2018-03-02T12:30:37.104Z,27.17
2018-03-02T12:33:06.125Z,28.43
2018-03-02T12:35:34.378Z,29.23
2018-03-02T12:38:03.009Z,28.50
2018-03-02T12:40:31.272Z,27.80
2018-03-02T12:42:59.592Z,27.77
2018-03-02T12:45:27.819Z,27.93
2018-03-02T12:47:56.326Z,27.03
2018-03-02T12:50:24.653Z,28.37
2018-03-02T12:52:52.891Z,30.17
2018-03-02T12:55:21.946Z,27.33
2018-03-02T12:57:50.266Z,25.97
2018-03-02T13:00:19.404Z,28.43
2018-03-02T13:02:47.684Z,26.97
2018-03-02T13:05:15.951Z,26.70
2018-03-02T13:07:44.278Z,28.50
2018-03-02T13:10:12.526Z,29.30
2018-03-02T13:12:40.833Z,25.77
2018-03-02T13:15:09.102Z,26.70
2018-03-02T13:17:37.374Z,27.17
2018-03-02T13:20:05.644Z,27.07
2018-03-02T13:22:41.222Z,28.70
2018-03-02T13:25:10.312Z,28.50
2018-03-02T13:27:50.363Z,28.50
2018-03-02T13:30:18.813Z,26.70
2018-03-02T13:33:09.788Z,27.87
2018-03-02T13:35:38.042Z,26.80
2018-03-02T13:38:06.292Z,26.10
2018-03-02T13:40:46.498Z,27.70
2018-03-02T13:43:14.737Z,48.13
2018-03-02T13:45:43.071Z,27.60
2018-03-02T13:51:14.183Z,29.00
2018-03-02T13:53:42.450Z,26.80
2018-03-02T13:56:22.882Z,28.60
2018-03-02T13:58:51.878Z,28.57
2018-03-02T14:01:20.159Z,28.60
2018-03-02T14:04:00.385Z,28.90
2018-03-02T14:06:28.646Z,27.00
2018-03-02T14:08:56.938Z,28.60
2018-03-02T14:11:25.994Z,27.07
2018-03-02T14:13:54.245Z,27.63
2018-03-02T14:16:22.514Z,27.00
2018-03-02T14:18:50.808Z,29.13
2018-03-02T14:21:19.076Z,25.97
2018-03-02T14:23:47.339Z,27.13
2018-03-02T14:26:16.438Z,26.60
2018-03-02T14:28:45.521Z,27.63
2018-03-02T14:31:13.755Z,25.40
2018-03-02T14:33:42.060Z,28.00
2018-03-02T14:36:10.320Z,31.90
2018-03-02T14:38:38.596Z,26.40
2018-03-02T14:41:06.866Z,28.77
2018-03-02T14:43:35.161Z,28.80
2018-03-02T14:46:03.461Z,26.97
2018-03-02T14:48:31.747Z,28.73
2018-03-02T14:51:00.216Z,27.90
2018-03-02T14:53:29.514Z,27.57
2018-03-02T14:55:58.743Z,27.53
2018-03-02T14:58:27.866Z,28.67
2018-03-02T15:00:56.498Z,29.57
2018-03-02T15:03:24.769Z,28.53
2018-03-02T15:05:53.076Z,29.57
2018-03-02T15:08:22.166Z,32.00
2018-03-02T15:10:51.199Z,27.17
2018-03-02T15:13:19.506Z,28.50
2018-03-02T15:15:47.769Z,27.97
2018-03-02T15:18:16.077Z,28.23
2018-03-02T15:20:44.366Z,26.57
2018-03-02T15:23:13.535Z,27.00
2018-03-02T15:25:41.837Z,25.27
2018-03-02T15:28:10.127Z,26.67
2018-03-02T15:30:38.447Z,28.73
2018-03-02T15:33:06.711Z,25.73
2018-03-02T15:35:34.994Z,27.17
2018-03-02T15:38:03.272Z,28.10
2018-03-02T15:40:31.575Z,29.80
2018-03-02T15:42:59.926Z,28.50
2018-03-02T15:45:28.196Z,27.83
2018-03-02T15:47:56.458Z,28.40
2018-03-02T15:50:25.486Z,29.83
2018-03-02T15:52:53.745Z,27.57
2018-03-02T15:55:22.848Z,28.57
2018-03-02T15:57:51.188Z,27.57
2018-03-02T16:00:19.464Z,29.23
2018-03-02T16:02:48.513Z,28.87
2018-03-02T16:05:16.910Z,27.57
2018-03-02T16:07:45.234Z,29.00
2018-03-02T16:10:14.548Z,27.97
2018-03-02T16:12:43.709Z,27.60
2018-03-02T16:15:11.970Z,29.30
2018-03-02T16:17:40.285Z,29.57
2018-03-02T16:20:08.729Z,30.90
2018-03-02T16:22:37.053Z,28.90
2018-03-02T16:25:06.160Z,28.00
2018-03-02T16:27:34.468Z,27.73
2018-03-02T16:30:02.726Z,28.23
2018-03-02T16:32:31.007Z,27.23
2018-03-02T16:34:59.264Z,27.20
2018-03-02T16:37:27.613Z,23.87
2018-03-02T16:39:56.676Z,26.63
2018-03-02T16:42:25.110Z,26.37
2018-03-02T16:44:53.482Z,25.80
2018-03-02T16:47:21.757Z,24.57
2018-03-02T16:49:50.779Z,26.00
2018-03-02T16:52:19.094Z,22.97
2018-03-02T16:54:47.368Z,25.60
2018-03-02T16:57:15.625Z,24.90
2018-03-02T16:59:43.937Z,25.73
2018-03-02T17:02:12.264Z,25.83
2018-03-02T17:04:44.135Z,24.80
2018-03-02T17:07:13.920Z,26.47
2018-03-02T17:09:42.224Z,24.93
2018-03-02T17:12:11.262Z,25.60
2018-03-02T17:14:40.273Z,23.97
2018-03-02T17:17:09.424Z,26.37
2018-03-02T17:19:37.727Z,26.90
2018-03-02T17:22:06.239Z,24.10
2018-03-02T17:24:34.525Z,26.60
2018-03-02T17:27:04.595Z,25.17
2018-03-02T17:29:32.912Z,20.30
2018-03-02T17:32:01.146Z,24.70
2018-03-02T17:34:30.103Z,26.40
2018-03-02T17:36:58.431Z,26.23
2018-03-02T17:39:26.703Z,26.67
2018-03-02T17:41:54.988Z,25.50
2018-03-02T17:44:23.290Z,25.93
2018-03-02T17:46:51.707Z,27.67
2018-03-02T17:49:20.736Z,25.47
2018-03-02T17:51:50.127Z,25.07
2018-03-02T17:54:18.388Z,26.27
2018-03-02T17:56:46.801Z,27.67
2018-03-02T17:59:15.994Z,26.70
2018-03-02T18:01:45.172Z,25.17
2018-03-02T18:04:13.478Z,30.40
2018-03-02T18:06:41.710Z,27.33
2018-03-02T18:09:10.768Z,25.60
2018-03-02T18:11:39.150Z,28.20
2018-03-02T18:14:07.512Z,25.17
2018-03-02T18:16:35.855Z,26.50
2018-03-02T18:19:04.978Z,27.07
2018-03-02T18:21:33.280Z,27.80
2018-03-02T18:24:01.636Z,29.50
2018-03-02T18:26:29.948Z,29.67
2018-03-02T18:28:58.266Z,27.07
2018-03-02T18:31:27.352Z,28.80
2018-03-02T18:33:55.634Z,27.57
2018-03-02T18:36:24.682Z,27.93
2018-03-02T18:38:52.971Z,31.80
2018-03-02T18:41:21.276Z,31.27
2018-03-02T18:43:49.622Z,30.53
2018-03-02T18:46:17.968Z,29.77
2018-03-02T18:48:46.322Z,29.53
2018-03-02T18:51:14.687Z,29.40
2018-03-02T18:53:42.961Z,28.90
2018-03-02T18:56:11.718Z,31.60
2018-03-02T18:58:40.338Z,30.20
2018-03-02T19:01:08.631Z,30.40
2018-03-02T19:03:37.011Z,32.77
2018-03-02T19:06:05.384Z,31.30
2018-03-02T19:08:33.892Z,29.90
2018-03-02T19:11:02.218Z,28.70
2018-03-02T19:13:31.349Z,28.27
2018-03-02T19:16:00.734Z,30.67
2018-03-02T19:18:29.086Z,33.33
2018-03-02T19:20:57.450Z,29.53
2018-03-02T19:23:25.770Z,32.50
2018-03-02T19:25:54.372Z,32.40
2018-03-02T19:28:24.299Z,34.70
2018-03-02T19:30:53.297Z,31.60
2018-03-02T19:33:23.725Z,33.57
2018-03-02T19:35:52.175Z,34.27
2018-03-02T19:38:21.581Z,34.07
2018-03-02T19:40:50.588Z,34.20
2018-03-02T19:43:18.951Z,32.30
2018-03-02T19:45:48.765Z,33.97
2018-03-02T19:48:17.562Z,33.07
2018-03-02T19:50:55.468Z,34.23
2018-03-02T19:53:24.248Z,34.33
2018-03-02T19:55:54.122Z,34.70
2018-03-02T19:58:25.972Z,31.67
2018-03-02T20:01:10.469Z,28.40
2018-03-02T20:03:42.457Z,35.20
2018-03-02T20:06:11.632Z,33.97
2018-03-02T20:08:41.463Z,37.33
2018-03-02T20:11:11.046Z,35.33
2018-03-02T20:13:40.177Z,37.40
2018-03-02T20:16:10.638Z,38.43
2018-03-02T20:18:40.474Z,35.30
2018-03-02T20:21:09.403Z,37.20
2018-03-02T20:23:37.777Z,39.17
2018-03-02T20:26:06.140Z,39.47
2018-03-02T20:28:34.615Z,40.03
2018-03-02T20:31:03.066Z,39.93
2018-03-02T20:33:31.812Z,39.53
2018-03-02T20:36:00.147Z,41.40
2018-03-02T20:38:29.078Z,39.60
2018-03-02T20:40:58.155Z,38.23
2018-03-02T20:43:26.423Z,39.80
2018-03-02T20:45:55.453Z,38.30
2018-03-02T20:48:23.762Z,37.80
2018-03-02T20:50:52.853Z,42.37
2018-03-02T20:53:21.261Z,37.27
2018-03-02T20:55:49.678Z,39.47
2018-03-02T20:58:18.008Z,40.30
2018-03-02T21:00:47.073Z,39.37
2018-03-02T21:03:15.416Z,39.07
2018-03-02T21:05:44.037Z,38.57
2018-03-02T21:08:13.101Z,39.00
2018-03-02T21:10:41.468Z,41.80
2018-03-02T21:13:09.810Z,41.83
2018-03-02T21:15:38.497Z,41.30
2018-03-02T21:18:06.759Z,41.70
2018-03-02T21:20:35.855Z,42.20
2018-03-02T21:23:04.155Z,40.30
2018-03-02T21:25:32.504Z,41.73
2018-03-02T21:28:02.047Z,38.47
2018-03-02T21:30:31.076Z,38.50
2018-03-02T21:32:59.364Z,39.80
2018-03-02T21:35:27.698Z,38.77
2018-03-02T21:37:57.392Z,45.07
2018-03-02T21:40:26.454Z,43.13
2018-03-02T21:42:54.752Z,40.70
2018-03-02T21:45:23.840Z,41.07
2018-03-02T21:47:53.610Z,40.80
2018-03-02T21:50:21.952Z,40.53
2018-03-02T21:52:50.997Z,40.63
2018-03-02T21:55:19.412Z,40.03
2018-03-02T21:57:47.680Z,39.50
2018-03-02T22:00:16.016Z,43.47
2018-03-02T22:02:44.334Z,39.90
2018-03-02T22:05:12.644Z,40.17
2018-03-02T22:07:41.703Z,43.20
2018-03-02T22:10:09.982Z,41.67
2018-03-02T22:12:38.387Z,42.70
2018-03-02T22:15:07.467Z,41.27
2018-03-02T22:17:35.721Z,40.87
2018-03-02T22:20:04.023Z,43.07
2018-03-02T22:22:32.343Z,41.43
2018-03-02T22:25:00.643Z,40.27
2018-03-02T22:27:28.921Z,42.30
2018-03-02T22:29:57.228Z,44.47
2018-03-02T22:32:25.577Z,42.07
2018-03-02T22:34:54.566Z,43.90
2018-03-02T22:37:22.849Z,40.83
2018-03-02T22:39:51.125Z,40.57
2018-03-02T22:42:19.387Z,42.93
2018-03-02T22:44:47.662Z,40.73
2018-03-02T22:47:16.002Z,37.97
2018-03-02T22:49:44.384Z,42.83
2018-03-02T22:52:12.648Z,41.93
2018-03-02T22:54:41.540Z,43.33
2018-03-02T22:57:09.928Z,41.17
2018-03-02T22:59:38.176Z,39.87
2018-03-02T23:02:06.462Z,40.10
2018-03-02T23:04:34.761Z,44.07
2018-03-02T23:07:03.037Z,37.90
2018-03-02T23:09:31.781Z,41.03
2018-03-02T23:12:00.048Z,42.07
2018-03-02T23:14:28.354Z,41.33
2018-03-02T23:16:56.623Z,41.47
2018-03-02T23:19:25.071Z,43.13
2018-03-02T23:21:53.390Z,41.20
2018-03-02T23:24:21.666Z,40.73
2018-03-02T23:26:49.957Z,40.57
2018-03-02T23:29:18.218Z,46.10
2018-03-02T23:31:47.377Z,40.70
2018-03-02T23:34:16.401Z,41.30
2018-03-02T23:36:44.682Z,45.73
2018-03-02T23:39:12.944Z,42.07
2018-03-02T23:41:41.248Z,42.50
2018-03-02T23:44:09.550Z,40.70
2018-03-02T23:46:37.811Z,42.47
2018-03-02T23:49:06.078Z,42.07
2018-03-02T23:51:34.663Z,41.00
2018-03-02T23:54:02.963Z,43.17
2018-03-02T23:56:31.237Z,40.67
2018-03-02T23:58:59.518Z,42.10
